sensor_id;sensor_type;location;lat;lon;timestamp;pressure;altitude;pressure_sealevel;temperature;humidity
60642;BME280;46837;52.446;-1.930;2023-02-23T00:00:13;100283.05;;;6.16;77.71
60642;BME280;46837;52.446;-1.930;2023-02-23T00:01:13;100282.24;;;6.16;77.63
60642;BME280;46837;52.446;-1.930;2023-02-23T00:02:09;100281.15;;;6.15;77.71
60642;BME280;46837;52.446;-1.930;2023-02-23T00:03:09;100284.82;;;6.19;77.73
60642;BME280;46837;52.446;-1.930;2023-02-23T00:04:09;100283.00;;;6.18;77.59
60642;BME280;46837;52.446;-1.930;2023-02-23T00:05:09;100291.38;;;6.19;77.56
60642;BME280;46837;52.446;-1.930;2023-02-23T00:06:09;100288.26;;;6.17;77.40
60642;BME280;46837;52.446;-1.930;2023-02-23T00:07:09;100287.07;;;6.18;77.64
60642;BME280;46837;52.446;-1.930;2023-02-23T00:08:09;100288.43;;;6.16;77.47
60642;BME280;46837;52.446;-1.930;2023-02-23T00:09:15;100289.86;;;6.17;77.50
60642;BME280;46837;52.446;-1.930;2023-02-23T00:10:10;100290.96;;;6.17;77.39
60642;BME280;46837;52.446;-1.930;2023-02-23T00:11:09;100293.07;;;6.17;77.46
60642;BME280;46837;52.446;-1.930;2023-02-23T00:12:10;100291.63;;;6.16;77.33
60642;BME280;46837;52.446;-1.930;2023-02-23T00:13:09;100297.35;;;6.14;77.40
60642;BME280;46837;52.446;-1.930;2023-02-23T00:14:10;100299.24;;;6.14;77.55
60642;BME280;46837;52.446;-1.930;2023-02-23T00:15:10;100302.81;;;6.09;77.60
60642;BME280;46837;52.446;-1.930;2023-02-23T00:16:10;100298.35;;;6.13;77.74
60642;BME280;46837;52.446;-1.930;2023-02-23T00:17:12;100300.12;;;6.12;77.51
60642;BME280;46837;52.446;-1.930;2023-02-23T00:18:09;100303.70;;;6.12;77.38
60642;BME280;46837;52.446;-1.930;2023-02-23T00:19:09;100307.25;;;6.11;77.51
60642;BME280;46837;52.446;-1.930;2023-02-23T00:20:13;100307.03;;;6.11;77.43
60642;BME280;46837;52.446;-1.930;2023-02-23T00:21:12;100306.06;;;6.10;77.29
60642;BME280;46837;52.446;-1.930;2023-02-23T00:22:09;100316.02;;;6.12;77.28
60642;BME280;46837;52.446;-1.930;2023-02-23T00:23:09;100312.51;;;6.13;77.20
60642;BME280;46837;52.446;-1.930;2023-02-23T00:24:09;100313.95;;;6.12;77.26
60642;BME280;46837;52.446;-1.930;2023-02-23T00:25:10;100309.86;;;6.13;77.30
60642;BME280;46837;52.446;-1.930;2023-02-23T00:26:09;100308.62;;;6.07;77.27
60642;BME280;46837;52.446;-1.930;2023-02-23T00:27:09;100314.25;;;6.10;77.38
60642;BME280;46837;52.446;-1.930;2023-02-23T00:28:09;100309.93;;;6.12;77.43
60642;BME280;46837;52.446;-1.930;2023-02-23T00:29:12;100319.25;;;6.12;77.49
60642;BME280;46837;52.446;-1.930;2023-02-23T00:30:12;100315.42;;;6.12;77.60
60642;BME280;46837;52.446;-1.930;2023-02-23T00:31:09;100319.14;;;6.06;77.60
60642;BME280;46837;52.446;-1.930;2023-02-23T00:32:09;100316.79;;;6.01;77.60
60642;BME280;46837;52.446;-1.930;2023-02-23T00:33:09;100318.05;;;6.02;77.81
60642;BME280;46837;52.446;-1.930;2023-02-23T00:34:11;100316.62;;;5.97;77.93
60642;BME280;46837;52.446;-1.930;2023-02-23T00:35:13;100321.21;;;5.95;78.21
60642;BME280;46837;52.446;-1.930;2023-02-23T00:36:10;100320.26;;;5.96;78.10
60642;BME280;46837;52.446;-1.930;2023-02-23T00:37:09;100319.18;;;5.99;78.26
60642;BME280;46837;52.446;-1.930;2023-02-23T00:38:09;100320.27;;;5.97;78.41
60642;BME280;46837;52.446;-1.930;2023-02-23T00:39:13;100324.04;;;5.98;78.39
60642;BME280;46837;52.446;-1.930;2023-02-23T00:40:13;100319.61;;;5.89;78.24
60642;BME280;46837;52.446;-1.930;2023-02-23T00:41:09;100318.88;;;5.90;78.46
60642;BME280;46837;52.446;-1.930;2023-02-23T00:42:09;100320.77;;;5.89;78.70
60642;BME280;46837;52.446;-1.930;2023-02-23T00:43:09;100320.10;;;5.89;78.64
60642;BME280;46837;52.446;-1.930;2023-02-23T00:44:09;100319.69;;;5.85;78.78
60642;BME280;46837;52.446;-1.930;2023-02-23T00:45:12;100317.55;;;5.84;78.84
60642;BME280;46837;52.446;-1.930;2023-02-23T00:46:09;100321.91;;;5.81;78.91
60642;BME280;46837;52.446;-1.930;2023-02-23T00:47:09;100322.63;;;5.73;79.10
60642;BME280;46837;52.446;-1.930;2023-02-23T00:48:12;100326.42;;;5.74;79.31
60642;BME280;46837;52.446;-1.930;2023-02-23T00:49:09;100322.04;;;5.77;79.31
60642;BME280;46837;52.446;-1.930;2023-02-23T00:50:12;100324.46;;;5.77;79.26
60642;BME280;46837;52.446;-1.930;2023-02-23T00:51:09;100322.16;;;5.76;79.54
60642;BME280;46837;52.446;-1.930;2023-02-23T00:52:09;100320.74;;;5.69;79.61
60642;BME280;46837;52.446;-1.930;2023-02-23T00:53:09;100321.02;;;5.62;79.98
60642;BME280;46837;52.446;-1.930;2023-02-23T00:54:12;100321.61;;;5.68;79.98
60642;BME280;46837;52.446;-1.930;2023-02-23T00:55:09;100321.83;;;5.71;79.86
60642;BME280;46837;52.446;-1.930;2023-02-23T00:56:10;100317.87;;;5.73;79.77
60642;BME280;46837;52.446;-1.930;2023-02-23T00:57:09;100325.36;;;5.71;79.83
60642;BME280;46837;52.446;-1.930;2023-02-23T00:58:11;100325.53;;;5.69;79.83
60642;BME280;46837;52.446;-1.930;2023-02-23T00:59:09;100327.92;;;5.71;80.13
60642;BME280;46837;52.446;-1.930;2023-02-23T01:00:13;100330.09;;;5.74;80.13
60642;BME280;46837;52.446;-1.930;2023-02-23T01:01:10;100332.84;;;5.75;80.15
60642;BME280;46837;52.446;-1.930;2023-02-23T01:02:09;100328.90;;;5.78;80.17
60642;BME280;46837;52.446;-1.930;2023-02-23T01:03:09;100326.89;;;5.80;80.05
60642;BME280;46837;52.446;-1.930;2023-02-23T01:04:09;100328.79;;;5.82;80.07
60642;BME280;46837;52.446;-1.930;2023-02-23T01:05:09;100329.65;;;5.82;79.88
60642;BME280;46837;52.446;-1.930;2023-02-23T01:06:10;100329.95;;;5.81;79.79
60642;BME280;46837;52.446;-1.930;2023-02-23T01:07:09;100327.94;;;5.84;79.82
60642;BME280;46837;52.446;-1.930;2023-02-23T01:08:11;100330.93;;;5.86;79.71
60642;BME280;46837;52.446;-1.930;2023-02-23T01:09:11;100329.91;;;5.88;79.77
60642;BME280;46837;52.446;-1.930;2023-02-23T01:10:13;100327.16;;;5.89;79.71
60642;BME280;46837;52.446;-1.930;2023-02-23T01:11:18;100328.01;;;5.91;79.67
60642;BME280;46837;52.446;-1.930;2023-02-23T01:12:09;100331.21;;;5.91;79.66
60642;BME280;46837;52.446;-1.930;2023-02-23T01:13:09;100331.56;;;5.93;79.74
60642;BME280;46837;52.446;-1.930;2023-02-23T01:14:09;100328.80;;;5.95;79.78
60642;BME280;46837;52.446;-1.930;2023-02-23T01:15:10;100327.46;;;5.98;79.68
60642;BME280;46837;52.446;-1.930;2023-02-23T01:16:10;100325.06;;;5.98;79.63
60642;BME280;46837;52.446;-1.930;2023-02-23T01:17:09;100328.05;;;6.02;79.74
60642;BME280;46837;52.446;-1.930;2023-02-23T01:18:09;100325.56;;;5.96;79.43
60642;BME280;46837;52.446;-1.930;2023-02-23T01:19:09;100329.29;;;5.98;79.43
60642;BME280;46837;52.446;-1.930;2023-02-23T01:20:15;100327.29;;;5.95;79.47
60642;BME280;46837;52.446;-1.930;2023-02-23T01:21:14;100331.76;;;5.97;79.52
60642;BME280;46837;52.446;-1.930;2023-02-23T01:22:09;100329.62;;;5.88;79.51
60642;BME280;46837;52.446;-1.930;2023-02-23T01:23:09;100329.84;;;5.88;79.56
60642;BME280;46837;52.446;-1.930;2023-02-23T01:24:09;100331.25;;;5.88;79.75
60642;BME280;46837;52.446;-1.930;2023-02-23T01:25:09;100327.54;;;5.87;79.58
60642;BME280;46837;52.446;-1.930;2023-02-23T01:26:22;100333.62;;;5.88;79.44
60642;BME280;46837;52.446;-1.930;2023-02-23T01:27:09;100332.76;;;5.88;79.50
60642;BME280;46837;52.446;-1.930;2023-02-23T01:28:09;100330.32;;;5.90;79.39
60642;BME280;46837;52.446;-1.930;2023-02-23T01:29:12;100329.23;;;5.92;79.37
60642;BME280;46837;52.446;-1.930;2023-02-23T01:30:10;100330.31;;;5.90;79.20
60642;BME280;46837;52.446;-1.930;2023-02-23T01:31:10;100331.84;;;5.95;79.18
60642;BME280;46837;52.446;-1.930;2023-02-23T01:32:09;100334.94;;;5.92;79.03
60642;BME280;46837;52.446;-1.930;2023-02-23T01:33:09;100334.30;;;5.94;79.14
60642;BME280;46837;52.446;-1.930;2023-02-23T01:34:09;100333.65;;;5.96;79.02
60642;BME280;46837;52.446;-1.930;2023-02-23T01:35:10;100334.36;;;5.97;79.02
60642;BME280;46837;52.446;-1.930;2023-02-23T01:36:09;100335.62;;;5.97;79.01
60642;BME280;46837;52.446;-1.930;2023-02-23T01:37:09;100336.32;;;5.97;78.88
60642;BME280;46837;52.446;-1.930;2023-02-23T01:38:09;100336.54;;;5.96;78.80
60642;BME280;46837;52.446;-1.930;2023-02-23T01:39:11;100334.48;;;5.97;78.78
60642;BME280;46837;52.446;-1.930;2023-02-23T01:40:19;100337.33;;;5.94;78.47
60642;BME280;46837;52.446;-1.930;2023-02-23T01:41:09;100335.65;;;5.94;78.66
60642;BME280;46837;52.446;-1.930;2023-02-23T01:42:13;100336.19;;;5.94;78.59
60642;BME280;46837;52.446;-1.930;2023-02-23T01:43:15;100334.33;;;5.95;78.64
60642;BME280;46837;52.446;-1.930;2023-02-23T01:46:09;100334.01;;;5.98;78.42
60642;BME280;46837;52.446;-1.930;2023-02-23T01:47:09;100331.55;;;5.99;78.50
60642;BME280;46837;52.446;-1.930;2023-02-23T01:48:14;100332.25;;;5.97;78.40
60642;BME280;46837;52.446;-1.930;2023-02-23T01:49:11;100337.39;;;5.96;78.19
60642;BME280;46837;52.446;-1.930;2023-02-23T01:50:09;100338.43;;;5.98;78.27
60642;BME280;46837;52.446;-1.930;2023-02-23T01:51:12;100335.10;;;6.00;78.24
60642;BME280;46837;52.446;-1.930;2023-02-23T01:52:10;100336.24;;;6.00;78.15
60642;BME280;46837;52.446;-1.930;2023-02-23T01:53:09;100334.39;;;6.00;78.15
60642;BME280;46837;52.446;-1.930;2023-02-23T01:54:14;100332.81;;;6.04;78.09
60642;BME280;46837;52.446;-1.930;2023-02-23T01:55:09;100334.21;;;6.04;77.97
60642;BME280;46837;52.446;-1.930;2023-02-23T01:56:14;100340.43;;;6.08;78.05
60642;BME280;46837;52.446;-1.930;2023-02-23T01:57:10;100336.89;;;6.09;78.10
60642;BME280;46837;52.446;-1.930;2023-02-23T01:58:11;100336.17;;;6.10;77.92
60642;BME280;46837;52.446;-1.930;2023-02-23T01:59:09;100338.71;;;6.08;77.83
60642;BME280;46837;52.446;-1.930;2023-02-23T02:00:13;100340.71;;;6.08;77.82
60642;BME280;46837;52.446;-1.930;2023-02-23T02:01:09;100338.43;;;6.10;77.84
60642;BME280;46837;52.446;-1.930;2023-02-23T02:02:09;100337.04;;;6.11;77.78
60642;BME280;46837;52.446;-1.930;2023-02-23T02:03:12;100339.01;;;6.07;77.73
60642;BME280;46837;52.446;-1.930;2023-02-23T02:04:09;100339.05;;;6.06;77.66
60642;BME280;46837;52.446;-1.930;2023-02-23T02:05:14;100339.00;;;6.06;77.76
60642;BME280;46837;52.446;-1.930;2023-02-23T02:06:09;100338.26;;;6.05;77.70
60642;BME280;46837;52.446;-1.930;2023-02-23T02:07:12;100344.43;;;6.07;77.83
60642;BME280;46837;52.446;-1.930;2023-02-23T02:08:09;100342.96;;;6.09;77.94
60642;BME280;46837;52.446;-1.930;2023-02-23T02:09:09;100342.30;;;6.04;77.71
60642;BME280;46837;52.446;-1.930;2023-02-23T02:10:13;100344.55;;;6.03;77.87
60642;BME280;46837;52.446;-1.930;2023-02-23T02:11:14;100345.75;;;6.05;77.88
60642;BME280;46837;52.446;-1.930;2023-02-23T02:12:11;100347.88;;;6.03;77.79
60642;BME280;46837;52.446;-1.930;2023-02-23T02:13:09;100344.94;;;5.97;77.62
60642;BME280;46837;52.446;-1.930;2023-02-23T02:14:13;100345.91;;;5.98;77.89
60642;BME280;46837;52.446;-1.930;2023-02-23T02:15:09;100346.96;;;5.99;77.83
60642;BME280;46837;52.446;-1.930;2023-02-23T02:16:22;100351.91;;;6.00;77.87
60642;BME280;46837;52.446;-1.930;2023-02-23T02:28:22;100354.83;;;6.03;77.73
60642;BME280;46837;52.446;-1.930;2023-02-23T02:33:17;100351.73;;;5.99;77.63
60642;BME280;46837;52.446;-1.930;2023-02-23T02:34:20;100352.67;;;6.02;77.96
60642;BME280;46837;52.446;-1.930;2023-02-23T02:36:17;100357.05;;;6.06;77.92
60642;BME280;46837;52.446;-1.930;2023-02-23T02:41:15;100363.19;;;5.97;77.88
60642;BME280;46837;52.446;-1.930;2023-02-23T02:43:20;100360.79;;;5.97;77.90
60642;BME280;46837;52.446;-1.930;2023-02-23T02:46:14;100361.79;;;6.00;77.86
60642;BME280;46837;52.446;-1.930;2023-02-23T02:47:12;100357.95;;;6.01;77.80
60642;BME280;46837;52.446;-1.930;2023-02-23T02:50:22;100360.23;;;5.97;77.98
60642;BME280;46837;52.446;-1.930;2023-02-23T02:52:18;100362.34;;;5.94;77.98
60642;BME280;46837;52.446;-1.930;2023-02-23T02:53:09;100362.11;;;5.95;78.13
60642;BME280;46837;52.446;-1.930;2023-02-23T02:55:19;100360.77;;;5.89;78.09
60642;BME280;46837;52.446;-1.930;2023-02-23T02:56:09;100356.76;;;5.84;78.14
60642;BME280;46837;52.446;-1.930;2023-02-23T02:57:09;100361.27;;;5.83;78.22
60642;BME280;46837;52.446;-1.930;2023-02-23T02:58:10;100363.94;;;5.85;78.33
60642;BME280;46837;52.446;-1.930;2023-02-23T02:59:14;100363.48;;;5.86;78.33
60642;BME280;46837;52.446;-1.930;2023-02-23T03:00:21;100364.55;;;5.85;78.29
60642;BME280;46837;52.446;-1.930;2023-02-23T03:01:13;100363.48;;;5.86;78.25
60642;BME280;46837;52.446;-1.930;2023-02-23T03:02:18;100365.91;;;5.88;78.29
60642;BME280;46837;52.446;-1.930;2023-02-23T03:04:21;100364.47;;;5.87;78.34
60642;BME280;46837;52.446;-1.930;2023-02-23T03:05:13;100366.75;;;5.89;78.41
60642;BME280;46837;52.446;-1.930;2023-02-23T03:06:13;100361.82;;;5.87;78.44
60642;BME280;46837;52.446;-1.930;2023-02-23T03:07:22;100361.69;;;5.91;78.51
60642;BME280;46837;52.446;-1.930;2023-02-23T03:08:20;100359.48;;;5.91;78.52
60642;BME280;46837;52.446;-1.930;2023-02-23T03:11:13;100365.94;;;5.90;78.35
60642;BME280;46837;52.446;-1.930;2023-02-23T03:12:30;100367.68;;;5.87;78.45
60642;BME280;46837;52.446;-1.930;2023-02-23T03:19:19;100363.98;;;5.82;78.60
60642;BME280;46837;52.446;-1.930;2023-02-23T03:20:35;100365.38;;;5.83;78.64
60642;BME280;46837;52.446;-1.930;2023-02-23T03:21:16;100363.60;;;5.84;78.83
60642;BME280;46837;52.446;-1.930;2023-02-23T03:25:23;100367.85;;;5.90;78.64
60642;BME280;46837;52.446;-1.930;2023-02-23T03:28:17;100369.54;;;5.93;78.50
60642;BME280;46837;52.446;-1.930;2023-02-23T03:30:18;100375.81;;;5.87;78.59
60642;BME280;46837;52.446;-1.930;2023-02-23T03:31:20;100373.54;;;5.89;78.77
60642;BME280;46837;52.446;-1.930;2023-02-23T03:32:22;100373.78;;;5.91;78.67
60642;BME280;46837;52.446;-1.930;2023-02-23T03:33:18;100370.94;;;5.93;78.71
60642;BME280;46837;52.446;-1.930;2023-02-23T03:34:19;100373.01;;;5.95;78.72
60642;BME280;46837;52.446;-1.930;2023-02-23T03:35:20;100375.55;;;5.93;78.54
60642;BME280;46837;52.446;-1.930;2023-02-23T03:36:18;100378.54;;;5.92;78.68
60642;BME280;46837;52.446;-1.930;2023-02-23T03:37:21;100376.16;;;5.86;78.66
60642;BME280;46837;52.446;-1.930;2023-02-23T03:40:20;100381.13;;;5.81;79.20
60642;BME280;46837;52.446;-1.930;2023-02-23T03:41:13;100385.29;;;5.80;79.57
60642;BME280;46837;52.446;-1.930;2023-02-23T03:42:15;100386.24;;;5.80;79.61
60642;BME280;46837;52.446;-1.930;2023-02-23T03:43:16;100387.05;;;5.80;79.78
60642;BME280;46837;52.446;-1.930;2023-02-23T03:44:16;100387.95;;;5.78;80.00
60642;BME280;46837;52.446;-1.930;2023-02-23T03:45:14;100389.84;;;5.75;80.04
60642;BME280;46837;52.446;-1.930;2023-02-23T03:46:13;100390.47;;;5.71;80.38
60642;BME280;46837;52.446;-1.930;2023-02-23T03:47:13;100396.72;;;5.70;80.38
60642;BME280;46837;52.446;-1.930;2023-02-23T03:48:13;100396.31;;;5.66;80.56
60642;BME280;46837;52.446;-1.930;2023-02-23T03:49:13;100396.17;;;5.65;80.56
60642;BME280;46837;52.446;-1.930;2023-02-23T03:50:20;100396.36;;;5.62;80.86
60642;BME280;46837;52.446;-1.930;2023-02-23T03:51:13;100403.84;;;5.66;80.88
60642;BME280;46837;52.446;-1.930;2023-02-23T03:52:17;100398.67;;;5.65;80.77
60642;BME280;46837;52.446;-1.930;2023-02-23T03:53:16;100404.34;;;5.69;80.84
60642;BME280;46837;52.446;-1.930;2023-02-23T03:54:17;100404.62;;;5.71;80.79
60642;BME280;46837;52.446;-1.930;2023-02-23T03:55:18;100402.26;;;5.71;80.69
60642;BME280;46837;52.446;-1.930;2023-02-23T03:56:13;100404.02;;;5.69;80.81
60642;BME280;46837;52.446;-1.930;2023-02-23T03:57:13;100404.08;;;5.68;81.00
60642;BME280;46837;52.446;-1.930;2023-02-23T03:58:15;100405.72;;;5.66;81.03
60642;BME280;46837;52.446;-1.930;2023-02-23T03:59:13;100408.28;;;5.66;81.19
60642;BME280;46837;52.446;-1.930;2023-02-23T04:00:17;100407.62;;;5.71;81.13
60642;BME280;46837;52.446;-1.930;2023-02-23T04:01:13;100409.51;;;5.71;81.09
60642;BME280;46837;52.446;-1.930;2023-02-23T04:02:13;100406.90;;;5.75;81.15
60642;BME280;46837;52.446;-1.930;2023-02-23T04:03:14;100406.81;;;5.70;81.02
60642;BME280;46837;52.446;-1.930;2023-02-23T04:04:13;100406.51;;;5.70;81.23
60642;BME280;46837;52.446;-1.930;2023-02-23T04:05:17;100411.61;;;5.73;81.26
60642;BME280;46837;52.446;-1.930;2023-02-23T04:06:13;100411.11;;;5.72;81.24
60642;BME280;46837;52.446;-1.930;2023-02-23T04:07:13;100412.99;;;5.71;81.23
60642;BME280;46837;52.446;-1.930;2023-02-23T04:08:13;100411.86;;;5.71;81.26
60642;BME280;46837;52.446;-1.930;2023-02-23T04:09:13;100414.77;;;5.73;81.27
60642;BME280;46837;52.446;-1.930;2023-02-23T04:10:15;100410.89;;;5.76;81.20
60642;BME280;46837;52.446;-1.930;2023-02-23T04:12:21;100416.14;;;5.74;81.32
60642;BME280;46837;52.446;-1.930;2023-02-23T04:13:16;100415.12;;;5.76;81.34
60642;BME280;46837;52.446;-1.930;2023-02-23T04:16:09;100413.91;;;5.76;81.34
60642;BME280;46837;52.446;-1.930;2023-02-23T04:17:09;100414.58;;;5.78;81.42
60642;BME280;46837;52.446;-1.930;2023-02-23T04:18:12;100419.67;;;5.78;81.50
60642;BME280;46837;52.446;-1.930;2023-02-23T04:19:09;100417.74;;;5.77;81.41
60642;BME280;46837;52.446;-1.930;2023-02-23T04:20:09;100423.21;;;5.78;81.39
60642;BME280;46837;52.446;-1.930;2023-02-23T04:21:09;100424.09;;;5.73;81.33
60642;BME280;46837;52.446;-1.930;2023-02-23T04:22:09;100421.65;;;5.73;81.59
60642;BME280;46837;52.446;-1.930;2023-02-23T04:23:09;100423.68;;;5.72;81.63
60642;BME280;46837;52.446;-1.930;2023-02-23T04:24:09;100424.44;;;5.72;81.68
60642;BME280;46837;52.446;-1.930;2023-02-23T04:25:09;100423.13;;;5.76;81.66
60642;BME280;46837;52.446;-1.930;2023-02-23T04:26:09;100420.97;;;5.78;81.56
60642;BME280;46837;52.446;-1.930;2023-02-23T04:27:09;100424.39;;;5.76;81.69
60642;BME280;46837;52.446;-1.930;2023-02-23T04:28:09;100426.77;;;5.80;81.74
60642;BME280;46837;52.446;-1.930;2023-02-23T04:29:09;100423.39;;;5.77;81.69
60642;BME280;46837;52.446;-1.930;2023-02-23T04:30:09;100426.07;;;5.83;81.72
60642;BME280;46837;52.446;-1.930;2023-02-23T04:31:09;100427.81;;;5.83;81.60
60642;BME280;46837;52.446;-1.930;2023-02-23T04:32:13;100424.72;;;5.85;81.58
60642;BME280;46837;52.446;-1.930;2023-02-23T04:33:09;100425.33;;;5.83;81.64
60642;BME280;46837;52.446;-1.930;2023-02-23T04:34:09;100426.38;;;5.85;81.61
60642;BME280;46837;52.446;-1.930;2023-02-23T04:35:09;100431.71;;;5.82;81.67
60642;BME280;46837;52.446;-1.930;2023-02-23T04:36:09;100431.55;;;5.83;81.79
60642;BME280;46837;52.446;-1.930;2023-02-23T04:37:09;100431.38;;;5.80;81.73
60642;BME280;46837;52.446;-1.930;2023-02-23T04:38:09;100434.20;;;5.83;81.84
60642;BME280;46837;52.446;-1.930;2023-02-23T04:39:09;100433.88;;;5.84;81.83
60642;BME280;46837;52.446;-1.930;2023-02-23T04:40:09;100439.26;;;5.82;81.81
60642;BME280;46837;52.446;-1.930;2023-02-23T04:41:09;100432.33;;;5.81;81.76
60642;BME280;46837;52.446;-1.930;2023-02-23T04:42:09;100436.10;;;5.82;81.74
60642;BME280;46837;52.446;-1.930;2023-02-23T04:43:12;100434.68;;;5.78;81.69
60642;BME280;46837;52.446;-1.930;2023-02-23T04:44:09;100433.45;;;5.78;81.98
60642;BME280;46837;52.446;-1.930;2023-02-23T04:45:10;100436.61;;;5.77;81.87
60642;BME280;46837;52.446;-1.930;2023-02-23T04:46:09;100435.84;;;5.77;81.92
60642;BME280;46837;52.446;-1.930;2023-02-23T04:47:09;100433.64;;;5.73;81.89
60642;BME280;46837;52.446;-1.930;2023-02-23T04:48:09;100439.28;;;5.76;81.92
60642;BME280;46837;52.446;-1.930;2023-02-23T04:49:09;100440.45;;;5.74;81.86
60642;BME280;46837;52.446;-1.930;2023-02-23T04:50:09;100440.60;;;5.72;81.85
60642;BME280;46837;52.446;-1.930;2023-02-23T04:51:09;100441.11;;;5.74;81.94
60642;BME280;46837;52.446;-1.930;2023-02-23T04:52:09;100434.29;;;5.73;81.79
60642;BME280;46837;52.446;-1.930;2023-02-23T04:53:09;100445.16;;;5.77;81.82
60642;BME280;46837;52.446;-1.930;2023-02-23T04:54:09;100447.91;;;5.78;81.68
60642;BME280;46837;52.446;-1.930;2023-02-23T04:56:09;100451.40;;;5.74;81.66
60642;BME280;46837;52.446;-1.930;2023-02-23T04:57:09;100451.64;;;5.76;81.86
60642;BME280;46837;52.446;-1.930;2023-02-23T04:58:09;100441.84;;;5.76;81.72
60642;BME280;46837;52.446;-1.930;2023-02-23T04:59:09;100455.50;;;5.76;81.82
60642;BME280;46837;52.446;-1.930;2023-02-23T05:00:09;100456.94;;;5.81;81.68
60642;BME280;46837;52.446;-1.930;2023-02-23T05:01:09;100452.13;;;5.81;81.57
60642;BME280;46837;52.446;-1.930;2023-02-23T05:02:09;100461.98;;;5.81;81.43
60642;BME280;46837;52.446;-1.930;2023-02-23T05:03:09;100462.14;;;5.74;81.58
60642;BME280;46837;52.446;-1.930;2023-02-23T05:04:09;100454.95;;;5.77;81.83
60642;BME280;46837;52.446;-1.930;2023-02-23T05:05:09;100465.12;;;5.81;81.57
60642;BME280;46837;52.446;-1.930;2023-02-23T05:06:09;100459.08;;;5.82;81.36
60642;BME280;46837;52.446;-1.930;2023-02-23T05:07:09;100467.96;;;5.85;81.30
60642;BME280;46837;52.446;-1.930;2023-02-23T05:08:09;100464.12;;;5.85;81.32
60642;BME280;46837;52.446;-1.930;2023-02-23T05:09:09;100471.87;;;5.90;81.24
60642;BME280;46837;52.446;-1.930;2023-02-23T05:10:09;100464.86;;;5.87;80.97
60642;BME280;46837;52.446;-1.930;2023-02-23T05:11:09;100473.29;;;5.86;81.03
60642;BME280;46837;52.446;-1.930;2023-02-23T05:12:09;100470.41;;;5.88;80.92
60642;BME280;46837;52.446;-1.930;2023-02-23T05:13:09;100466.20;;;5.87;80.75
60642;BME280;46837;52.446;-1.930;2023-02-23T05:14:09;100476.49;;;5.85;80.85
60642;BME280;46837;52.446;-1.930;2023-02-23T05:15:09;100469.90;;;5.89;80.93
60642;BME280;46837;52.446;-1.930;2023-02-23T05:16:09;100472.58;;;5.92;80.88
60642;BME280;46837;52.446;-1.930;2023-02-23T05:17:09;100475.16;;;5.95;80.65
60642;BME280;46837;52.446;-1.930;2023-02-23T05:18:09;100482.74;;;5.93;80.68
60642;BME280;46837;52.446;-1.930;2023-02-23T05:19:09;100482.84;;;5.93;80.71
60642;BME280;46837;52.446;-1.930;2023-02-23T05:20:09;100476.01;;;5.92;80.50
60642;BME280;46837;52.446;-1.930;2023-02-23T05:21:09;100485.22;;;5.90;80.51
60642;BME280;46837;52.446;-1.930;2023-02-23T05:22:09;100483.33;;;5.92;80.39
60642;BME280;46837;52.446;-1.930;2023-02-23T05:23:09;100482.92;;;5.96;80.40
60642;BME280;46837;52.446;-1.930;2023-02-23T05:24:09;100488.73;;;5.96;80.22
60642;BME280;46837;52.446;-1.930;2023-02-23T05:25:09;100493.10;;;5.86;80.14
60642;BME280;46837;52.446;-1.930;2023-02-23T05:26:10;100486.20;;;5.90;80.00
60642;BME280;46837;52.446;-1.930;2023-02-23T05:27:09;100486.73;;;5.88;79.88
60642;BME280;46837;52.446;-1.930;2023-02-23T05:28:09;100483.59;;;5.90;79.84
60642;BME280;46837;52.446;-1.930;2023-02-23T05:29:09;100486.92;;;5.88;79.81
60642;BME280;46837;52.446;-1.930;2023-02-23T05:30:09;100485.78;;;5.92;79.86
60642;BME280;46837;52.446;-1.930;2023-02-23T05:31:11;100487.88;;;5.92;79.69
60642;BME280;46837;52.446;-1.930;2023-02-23T05:32:09;100492.22;;;5.90;79.71
60642;BME280;46837;52.446;-1.930;2023-02-23T05:33:09;100486.87;;;5.87;79.74
60642;BME280;46837;52.446;-1.930;2023-02-23T05:34:09;100486.97;;;5.82;79.77
60642;BME280;46837;52.446;-1.930;2023-02-23T05:35:09;100492.43;;;5.85;79.92
60642;BME280;46837;52.446;-1.930;2023-02-23T05:36:16;100490.04;;;5.85;79.88
60642;BME280;46837;52.446;-1.930;2023-02-23T05:37:09;100488.18;;;5.81;79.73
60642;BME280;46837;52.446;-1.930;2023-02-23T05:38:09;100496.35;;;5.86;79.75
60642;BME280;46837;52.446;-1.930;2023-02-23T05:39:09;100482.12;;;5.81;79.50
60642;BME280;46837;52.446;-1.930;2023-02-23T05:40:09;100497.45;;;5.79;79.61
60642;BME280;46837;52.446;-1.930;2023-02-23T05:41:10;100495.46;;;5.81;79.63
60642;BME280;46837;52.446;-1.930;2023-02-23T05:42:09;100504.93;;;5.79;79.30
60642;BME280;46837;52.446;-1.930;2023-02-23T05:43:09;100499.83;;;5.78;79.41
60642;BME280;46837;52.446;-1.930;2023-02-23T05:44:09;100496.41;;;5.74;79.20
60642;BME280;46837;52.446;-1.930;2023-02-23T05:45:09;100498.66;;;5.78;79.12
60642;BME280;46837;52.446;-1.930;2023-02-23T05:46:15;100508.30;;;5.79;79.13
60642;BME280;46837;52.446;-1.930;2023-02-23T05:47:09;100501.99;;;5.70;78.69
60642;BME280;46837;52.446;-1.930;2023-02-23T05:48:11;100508.15;;;5.64;78.67
60642;BME280;46837;52.446;-1.930;2023-02-23T05:49:09;100500.23;;;5.67;78.65
60642;BME280;46837;52.446;-1.930;2023-02-23T05:50:09;100502.45;;;5.70;78.64
60642;BME280;46837;52.446;-1.930;2023-02-23T05:51:10;100504.68;;;5.66;78.47
60642;BME280;46837;52.446;-1.930;2023-02-23T05:52:09;100505.41;;;5.65;78.49
60642;BME280;46837;52.446;-1.930;2023-02-23T05:53:09;100507.84;;;5.67;78.45
60642;BME280;46837;52.446;-1.930;2023-02-23T05:54:09;100507.05;;;5.66;78.58
60642;BME280;46837;52.446;-1.930;2023-02-23T05:55:09;100511.10;;;5.67;78.45
60642;BME280;46837;52.446;-1.930;2023-02-23T05:56:11;100516.21;;;5.63;78.14
60642;BME280;46837;52.446;-1.930;2023-02-23T05:57:09;100509.08;;;5.64;78.06
60642;BME280;46837;52.446;-1.930;2023-02-23T05:58:09;100511.40;;;5.62;78.08
60642;BME280;46837;52.446;-1.930;2023-02-23T05:59:09;100512.43;;;5.60;78.15
60642;BME280;46837;52.446;-1.930;2023-02-23T06:00:09;100512.52;;;5.61;78.10
60642;BME280;46837;52.446;-1.930;2023-02-23T06:01:09;100509.17;;;5.54;77.94
60642;BME280;46837;52.446;-1.930;2023-02-23T06:02:09;100507.96;;;5.47;77.76
60642;BME280;46837;52.446;-1.930;2023-02-23T06:03:09;100516.14;;;5.47;77.99